Time;durP1;ratioP1;P1;durP2;ratioP2;P2;SDS_P1;SDS_P2;PMS_P1;PMS_P2;Temp;Humidity;BMP_temperature;BMP_pressure;BME280_temperature;BME280_humidity;BME280_pressure;Samples;Min_cycle;Max_cycle;Signal;HPM_P1;HPM_P2
2023/08/31 00:01:56;;;;;;;3.90;2.88;;;;;;;15.57;100.00;96224.28;5128297;28;20201;-67
2023/08/31 00:04:22;;;;;;;3.00;2.80;;;;;;;15.51;100.00;96222.38;5121643;28;20203;-67
2023/08/31 00:06:50;;;;;;;3.63;3.10;;;;;;;15.48;100.00;96235.19;5112522;28;20208;-68
2023/08/31 00:09:18;;;;;;;3.20;3.00;;;;;;;15.40;100.00;96222.78;5113284;28;20198;-67
2023/08/31 00:11:45;;;;;;;3.42;3.15;;;;;;;15.29;100.00;96229.41;5113352;28;20205;-66
2023/08/31 00:14:13;;;;;;;3.22;2.83;;;;;;;15.30;100.00;96232.88;5112745;28;20224;-68
2023/08/31 00:16:41;;;;;;;4.28;2.53;;;;;;;15.28;100.00;96229.56;5113412;28;20201;-67
2023/08/31 00:19:07;;;;;;;3.97;2.70;;;;;;;15.24;100.00;96222.94;5112176;28;21305;-68
2023/08/31 00:21:34;;;;;;;2.85;2.60;;;;;;;15.17;100.00;96228.16;5094081;28;20194;-66
2023/08/31 00:24:02;;;;;;;3.17;2.72;;;;;;;15.16;100.00;96220.38;5112622;28;20201;-68
2023/08/31 00:26:29;;;;;;;3.07;2.77;;;;;;;15.17;100.00;96224.69;5112704;28;20205;-68
2023/08/31 00:28:56;;;;;;;5.77;3.23;;;;;;;15.18;100.00;96218.34;5111973;28;20585;-68
2023/08/31 00:31:22;;;;;;;4.80;3.20;;;;;;;15.18;100.00;96221.00;5111826;28;20209;-67
2023/08/31 00:33:49;;;;;;;4.30;3.13;;;;;;;15.19;100.00;96220.00;5111201;28;20609;-68
2023/08/31 00:36:16;;;;;;;3.00;2.80;;;;;;;15.22;100.00;96224.97;5110183;28;20297;-68
2023/08/31 00:38:43;;;;;;;4.22;2.80;;;;;;;15.22;100.00;96219.66;5111651;28;20578;-67
2023/08/31 00:41:11;;;;;;;5.40;3.17;;;;;;;15.25;100.00;96221.94;5111641;28;20212;-67
2023/08/31 00:43:37;;;;;;;5.75;3.20;;;;;;;15.24;100.00;96225.59;5111631;28;20197;-66
2023/08/31 00:46:04;;;;;;;5.35;2.83;;;;;;;15.24;100.00;96222.94;5111478;28;20296;-66
2023/08/31 00:48:31;;;;;;;3.40;3.10;;;;;;;15.22;100.00;96222.31;5111817;28;20220;-67
2023/08/31 00:50:58;;;;;;;3.50;3.30;;;;;;;15.18;100.00;96218.34;5111626;28;20205;-66
2023/08/31 00:53:25;;;;;;;3.15;2.95;;;;;;;15.20;100.00;96221.66;5112328;28;20236;-68
2023/08/31 00:55:51;;;;;;;3.08;2.88;;;;;;;15.25;100.00;96221.94;5111806;28;20609;-66
2023/08/31 00:58:20;;;;;;;4.97;3.10;;;;;;;15.28;100.00;96218.91;5111984;28;20201;-68
2023/08/31 01:00:53;;;;;;;3.70;3.40;;;;;;;15.32;100.00;96212.22;5111340;28;20261;-67
2023/08/31 01:03:26;;;;;;;3.40;3.00;;;;;;;15.35;100.00;96220.66;5111934;28;20197;-67
2023/08/31 01:05:55;;;;;;;3.80;2.75;;;;;;;15.39;100.00;96219.28;5111682;28;20212;-68
2023/08/31 01:08:28;;;;;;;3.30;3.10;;;;;;;15.40;100.00;96218.28;5111628;28;20642;-68
2023/08/31 01:11:01;;;;;;;3.30;3.00;;;;;;;15.43;100.00;96225.91;5111150;28;20193;-69
2023/08/31 01:13:31;;;;;;;7.63;2.88;;;;;;;15.39;100.00;96216.63;5111031;28;20217;-68
2023/08/31 01:16:03;;;;;;;4.22;2.85;;;;;;;15.33;100.00;96212.03;5111897;28;20573;-66
2023/08/31 01:18:31;;;;;;;3.47;3.28;;;;;;;15.35;100.00;96214.50;5111745;28;20204;-68
2023/08/31 01:21:02;;;;;;;3.67;2.83;;;;;;;15.26;100.00;96215.63;5111072;28;20613;-68
2023/08/31 01:23:34;;;;;;;4.78;2.90;;;;;;;15.24;100.00;96223.78;5111659;28;20220;-67
2023/08/31 01:26:02;;;;;;;4.70;2.80;;;;;;;15.14;100.00;96217.88;5111095;28;20193;-66
2023/08/31 01:28:28;;;;;;;2.85;2.65;;;;;;;15.10;100.00;96213.09;5111333;28;20684;-68
2023/08/31 01:30:55;;;;;;;2.80;2.60;;;;;;;15.07;100.00;96213.47;5111862;28;20205;-66
2023/08/31 01:33:21;;;;;;;3.38;2.70;;;;;;;15.05;100.00;96224.31;5111465;28;20233;-67
2023/08/31 01:35:52;;;;;;;2.65;2.45;;;;;;;14.94;100.00;96230.06;5110407;28;20617;-66
2023/08/31 01:38:22;;;;;;;3.58;2.35;;;;;;;14.98;100.00;96228.69;5111430;28;20622;-67
2023/08/31 01:40:54;;;;;;;2.75;2.53;;;;;;;14.93;100.00;96231.06;5110927;28;20659;-66
2023/08/31 01:43:23;;;;;;;4.18;2.30;;;;;;;14.98;100.00;96233.19;5111656;28;20216;-66
2023/08/31 01:45:50;;;;;;;2.90;2.70;;;;;;;15.02;100.00;96239.81;5111144;28;20205;-67
2023/08/31 01:48:16;;;;;;;3.75;2.72;;;;;;;14.95;100.00;96234.38;5111233;28;20205;-67
2023/08/31 01:50:43;;;;;;;2.70;2.60;;;;;;;14.95;100.00;96239.69;5110675;28;20548;-67
2023/08/31 01:53:10;;;;;;;3.28;2.55;;;;;;;14.94;100.00;96236.22;5111436;28;20525;-67
2023/08/31 01:55:36;;;;;;;3.78;2.67;;;;;;;14.97;100.00;96242.19;5111326;28;20209;-66
2023/08/31 01:58:03;;;;;;;4.30;2.55;;;;;;;14.95;100.00;96242.34;5111630;28;20212;-68
2023/08/31 02:00:34;;;;;;;3.67;2.42;;;;;;;14.95;100.00;96235.19;5111367;28;20201;-68
2023/08/31 02:03:01;;;;;;;2.90;2.70;;;;;;;14.91;100.00;96244.53;5111402;28;20216;-68
2023/08/31 02:05:27;;;;;;;2.50;2.30;;;;;;;14.93;100.00;96241.72;5110413;28;20494;-67
2023/08/31 02:07:54;;;;;;;4.18;2.47;;;;;;;14.87;100.00;96240.59;5111203;28;20204;-68
2023/08/31 02:10:20;;;;;;;2.88;2.63;;;;;;;14.86;100.00;96246.94;5114197;28;20212;-67
2023/08/31 02:12:47;;;;;;;3.75;3.05;;;;;;;14.94;100.00;96249.53;5122404;28;20197;-69
2023/08/31 02:15:14;;;;;;;2.67;2.33;;;;;;;14.87;100.00;96253.91;5122546;28;20216;-67
2023/08/31 02:17:43;;;;;;;4.17;2.50;;;;;;;14.91;100.00;96249.06;5125443;28;20207;-69
2023/08/31 02:20:10;;;;;;;2.92;2.42;;;;;;;14.91;100.00;96249.88;5113607;28;20197;-67
2023/08/31 02:22:37;;;;;;;2.78;2.58;;;;;;;14.93;100.00;96247.88;5112301;28;20193;-66
2023/08/31 02:25:03;;;;;;;2.80;2.50;;;;;;;14.92;100.00;96256.03;5110997;28;20271;-67
2023/08/31 02:27:30;;;;;;;2.42;2.30;;;;;;;14.97;100.00;96252.84;5111513;28;20261;-66
2023/08/31 02:29:56;;;;;;;5.53;2.55;;;;;;;14.97;100.00;96258.16;5110888;28;20204;-66
2023/08/31 02:32:23;;;;;;;4.65;2.42;;;;;;;14.98;100.00;96257.16;5111478;28;20201;-68
2023/08/31 02:34:51;;;;;;;3.80;2.50;;;;;;;14.91;100.00;96260.53;5111125;28;20239;-67
2023/08/31 02:37:17;;;;;;;2.70;2.50;;;;;;;14.99;100.00;96261.47;5110965;28;20295;-68
2023/08/31 02:39:45;;;;;;;3.35;2.40;;;;;;;14.92;100.00;96262.19;5111207;28;20209;-69
2023/08/31 02:42:12;;;;;;;2.83;2.63;;;;;;;14.99;100.00;96262.28;5111437;28;20209;-66
2023/08/31 02:44:38;;;;;;;2.83;2.63;;;;;;;14.94;100.00;96264.69;5110921;28;20201;-67
2023/08/31 02:47:05;;;;;;;2.90;2.70;;;;;;;14.95;100.00;96261.00;5110166;28;20205;-68
2023/08/31 02:49:31;;;;;;;4.93;2.50;;;;;;;14.99;100.00;96262.28;5110162;28;20224;-69
2023/08/31 02:51:59;;;;;;;3.05;2.72;;;;;;;15.03;100.00;96254.78;5111054;28;20201;-68
2023/08/31 02:54:26;;;;;;;4.88;2.38;;;;;;;15.03;100.00;96252.09;5111200;28;20256;-67
2023/08/31 02:56:52;;;;;;;3.73;2.77;;;;;;;15.05;100.00;96252.78;5111599;28;20220;-68
2023/08/31 02:59:19;;;;;;;3.38;2.55;;;;;;;15.04;100.00;96248.44;5113200;28;20193;-67
2023/08/31 03:01:47;;;;;;;5.03;2.47;;;;;;;15.03;100.00;96254.78;5114457;28;20213;-67
2023/08/31 03:04:13;;;;;;;5.07;2.75;;;;;;;15.02;100.00;96261.94;5115022;28;20185;-68
2023/08/31 03:06:40;;;;;;;3.63;2.50;;;;;;;15.02;100.00;96261.13;5113978;28;20407;-68
2023/08/31 03:09:09;;;;;;;3.40;2.50;;;;;;;15.00;100.00;96263.13;5114560;28;20201;-67
2023/08/31 03:11:36;;;;;;;2.67;2.47;;;;;;;14.98;100.00;96260.66;5114309;28;20209;-69
2023/08/31 03:14:02;;;;;;;3.25;2.58;;;;;;;14.97;100.00;96279.47;5114776;28;20236;-69
2023/08/31 03:16:29;;;;;;;4.07;2.50;;;;;;;14.99;100.00;96266.78;5114334;28;20197;-67
2023/08/31 03:18:56;;;;;;;2.37;2.23;;;;;;;14.99;100.00;96272.09;5114550;28;20205;-68
2023/08/31 03:21:23;;;;;;;2.60;2.40;;;;;;;14.97;100.00;96268.81;5113365;28;20209;-68
2023/08/31 03:23:49;;;;;;;4.57;2.47;;;;;;;14.98;100.00;96275.81;5114669;28;20205;-67
2023/08/31 03:26:17;;;;;;;2.30;2.20;;;;;;;14.92;100.00;96272.84;5114580;28;20205;-68
2023/08/31 03:28:44;;;;;;;2.90;2.30;;;;;;;14.87;100.00;96275.22;5114506;28;20225;-67
2023/08/31 03:31:12;;;;;;;2.78;2.58;;;;;;;14.87;100.00;96277.88;5114574;28;20555;-67
2023/08/31 03:33:38;;;;;;;3.67;2.50;;;;;;;14.86;100.00;96278.88;5114869;28;20211;-67
2023/08/31 03:36:05;;;;;;;2.50;2.30;;;;;;;14.86;100.00;96278.88;5114599;28;20220;-69
2023/08/31 03:38:32;;;;;;;3.20;2.65;;;;;;;14.84;100.00;96272.88;5114460;28;20644;-67
2023/08/31 03:40:59;;;;;;;3.00;2.80;;;;;;;14.80;100.00;96278.78;5114660;28;20621;-69
2023/08/31 03:43:27;;;;;;;2.90;2.70;;;;;;;14.73;100.00;96283.97;5115072;28;20193;-67
2023/08/31 03:45:57;;;;;;;2.83;2.63;;;;;;;14.76;100.00;96288.94;5114228;28;20201;-66
2023/08/31 03:48:23;;;;;;;5.93;3.13;;;;;;;14.82;100.00;96288.22;5114233;28;20193;-67
2023/08/31 03:50:51;;;;;;;2.43;2.33;;;;;;;14.80;100.00;96279.59;5113890;28;20209;-70
2023/08/31 03:53:17;;;;;;;3.10;2.80;;;;;;;14.80;100.00;96290.25;5114172;28;20205;-68
2023/08/31 03:55:44;;;;;;;5.07;2.53;;;;;;;14.70;100.00;96289.63;5114181;28;20217;-67
2023/08/31 03:58:10;;;;;;;3.67;2.67;;;;;;;14.70;100.00;96294.16;5113787;28;20196;-67
2023/08/31 04:00:39;;;;;;;2.70;2.50;;;;;;;14.76;100.00;96294.28;5114562;28;20297;-68
2023/08/31 04:03:05;;;;;;;2.93;2.60;;;;;;;14.71;100.00;96301.09;5113451;28;20219;-67
2023/08/31 04:05:33;;;;;;;2.90;2.70;;;;;;;14.71;100.00;96299.28;5112752;28;20197;-68
2023/08/31 04:08:00;;;;;;;3.92;2.70;;;;;;;14.70;100.00;96299.47;5114043;28;20586;-68
2023/08/31 04:10:27;;;;;;;3.73;2.63;;;;;;;14.64;100.00;96301.00;5113018;28;20254;-69
2023/08/31 04:12:53;;;;;;;4.03;3.17;;;;;;;14.65;100.00;96307.16;5113713;28;20215;-68
2023/08/31 04:15:20;;;;;;;3.57;2.90;;;;;;;14.64;100.00;96305.47;5114028;28;20217;-69
2023/08/31 04:17:49;;;;;;;2.60;2.40;;;;;;;14.65;100.00;96307.16;5112240;28;20933;-67
2023/08/31 04:20:16;;;;;;;3.10;2.90;;;;;;;14.62;100.00;96311.00;5112621;28;20201;-68
2023/08/31 04:22:42;;;;;;;3.17;2.60;;;;;;;14.56;100.00;96317.00;5111727;28;20205;-68
2023/08/31 04:25:09;;;;;;;2.97;2.70;;;;;;;14.58;100.00;96316.84;5115080;28;20672;-69
2023/08/31 04:27:38;;;;;;;5.80;2.50;;;;;;;14.61;100.00;96317.31;5115690;28;20244;-67
2023/08/31 04:30:06;;;;;;;4.03;2.90;;;;;;;14.61;100.00;96319.97;5115514;28;20231;-67
2023/08/31 04:32:33;;;;;;;3.80;3.50;;;;;;;14.68;100.00;96323.59;5115421;28;20296;-68
2023/08/31 04:35:01;;;;;;;2.90;2.70;;;;;;;14.68;100.00;96334.25;5113416;28;20220;-68
2023/08/31 04:37:27;;;;;;;3.37;3.00;;;;;;;14.70;100.00;96342.06;5112873;28;20213;-67
2023/08/31 04:39:54;;;;;;;3.80;3.13;;;;;;;14.63;100.00;96347.22;5113245;28;20189;-68
2023/08/31 04:42:20;;;;;;;3.10;2.80;;;;;;;14.64;100.00;96358.69;5112320;28;20204;-67
2023/08/31 04:44:47;;;;;;;3.27;2.90;;;;;;;14.64;100.00;96359.53;5112451;28;20189;-66
2023/08/31 04:47:13;;;;;;;3.53;2.67;;;;;;;14.58;100.00;96348.78;5112684;28;20197;-66
2023/08/31 04:49:40;;;;;;;5.47;3.00;;;;;;;14.58;100.00;96351.44;5112235;28;20212;-67
2023/08/31 04:52:08;;;;;;;7.17;2.67;;;;;;;14.51;100.00;96364.59;5112539;28;20204;-66
2023/08/31 04:54:34;;;;;;;2.73;2.50;;;;;;;14.55;100.00;96365.91;5112426;28;20221;-67
2023/08/31 04:57:01;;;;;;;3.97;2.90;;;;;;;14.53;100.00;96361.75;5112437;28;20279;-66
2023/08/31 04:59:27;;;;;;;4.37;2.90;;;;;;;14.44;100.00;96355.66;5112713;28;20208;-67
2023/08/31 05:01:54;;;;;;;3.07;2.50;;;;;;;14.46;100.00;96353.66;5112346;28;20216;-67
2023/08/31 05:04:20;;;;;;;3.97;2.87;;;;;;;14.49;100.00;96360.47;5112501;28;20209;-67
2023/08/31 05:06:47;;;;;;;4.07;2.50;;;;;;;14.45;100.00;96360.78;5111830;28;20205;-66
2023/08/31 05:09:15;;;;;;;2.80;2.57;;;;;;;14.42;100.00;96357.66;5112036;28;20212;-68
2023/08/31 05:11:42;;;;;;;2.90;2.70;;;;;;;14.42;100.00;96355.00;5112047;28;20845;-67
2023/08/31 05:14:08;;;;;;;3.07;2.70;;;;;;;14.43;100.00;96356.66;5112432;28;20232;-67
2023/08/31 05:16:35;;;;;;;3.10;2.80;;;;;;;14.43;100.00;96361.97;5111553;28;20664;-66
2023/08/31 05:19:02;;;;;;;5.37;2.93;;;;;;;14.44;100.00;96358.31;5112596;28;20228;-67
2023/08/31 05:21:29;;;;;;;4.30;2.70;;;;;;;14.47;100.00;96368.63;5110557;28;20681;-68
2023/08/31 05:23:55;;;;;;;4.20;2.90;;;;;;;14.44;100.00;96380.44;5112372;28;20197;-67
2023/08/31 05:26:24;;;;;;;4.23;2.90;;;;;;;14.46;100.00;96382.91;5112251;28;20624;-65
2023/08/31 05:28:51;;;;;;;3.93;3.03;;;;;;;14.49;100.00;96390.53;5112008;28;20243;-67
2023/08/31 05:31:18;;;;;;;3.30;2.93;;;;;;;14.50;100.00;96389.56;5112695;28;20236;-67
2023/08/31 05:33:47;;;;;;;4.03;2.70;;;;;;;14.53;100.00;96388.38;5113637;28;20197;-66
2023/08/31 05:36:14;;;;;;;4.47;3.20;;;;;;;14.56;100.00;96391.50;5112041;28;20235;-67
2023/08/31 05:38:40;;;;;;;3.10;2.80;;;;;;;14.60;100.00;96399.97;5112841;28;20192;-66
2023/08/31 05:41:07;;;;;;;3.00;2.80;;;;;;;14.62;100.00;96397.97;5113430;28;20209;-68
2023/08/31 05:43:36;;;;;;;2.90;2.70;;;;;;;14.66;100.00;96404.63;5114210;28;20205;-67
2023/08/31 05:46:03;;;;;;;4.80;2.70;;;;;;;14.67;100.00;96403.59;5112376;28;20212;-67
2023/08/31 05:48:30;;;;;;;4.13;3.20;;;;;;;14.69;100.00;96410.44;5112622;28;20196;-66
2023/08/31 05:50:57;;;;;;;2.50;2.30;;;;;;;14.69;100.00;96407.75;5111454;28;20630;-69
2023/08/31 05:53:24;;;;;;;2.30;2.20;;;;;;;14.66;100.00;96404.63;5114713;28;20197;-67
2023/08/31 05:55:50;;;;;;;2.77;2.50;;;;;;;14.61;100.00;96407.78;5113015;28;20217;-67
2023/08/31 05:58:17;;;;;;;2.23;2.13;;;;;;;14.62;100.00;96417.44;5111725;28;20288;-68
2023/08/31 06:00:45;;;;;;;2.35;2.25;;;;;;;14.65;100.00;96421.59;5110446;28;20198;-66
2023/08/31 06:03:11;;;;;;;2.80;2.30;;;;;;;14.65;100.00;96425.09;5111870;28;20205;-70
2023/08/31 06:05:38;;;;;;;3.20;2.03;;;;;;;14.63;100.00;96427.06;5110502;28;20254;-68
2023/08/31 06:08:05;;;;;;;2.30;2.20;;;;;;;14.65;100.00;96427.75;5111638;28;20647;-69
2023/08/31 06:10:33;;;;;;;2.30;2.10;;;;;;;14.65;100.00;96424.25;5111167;28;20647;-68
2023/08/31 06:13:00;;;;;;;3.17;2.10;;;;;;;14.67;100.00;96427.56;5111994;28;20201;-68
2023/08/31 06:15:26;;;;;;;2.93;2.40;;;;;;;14.71;100.00;96423.53;5111479;28;20221;-66
2023/08/31 06:17:54;;;;;;;2.70;2.40;;;;;;;14.71;100.00;96427.03;5111318;28;20205;-67
2023/08/31 06:20:20;;;;;;;3.10;2.50;;;;;;;14.74;100.00;96425.84;5111057;28;20205;-69
2023/08/31 06:22:49;;;;;;;2.50;2.30;;;;;;;14.74;100.00;96423.19;5110968;28;20205;-68
2023/08/31 06:25:18;;;;;;;3.22;2.65;;;;;;;14.77;100.00;96426.34;5111807;28;20193;-67
2023/08/31 06:27:45;;;;;;;2.50;2.30;;;;;;;14.76;100.00;96426.53;5111114;28;20225;-68
2023/08/31 06:30:15;;;;;;;3.53;2.30;;;;;;;14.79;100.00;96431.50;5111588;28;20201;-69
2023/08/31 06:32:44;;;;;;;2.17;2.03;;;;;;;14.83;100.00;96432.81;5112378;28;20197;-69
2023/08/31 06:35:12;;;;;;;2.93;2.17;;;;;;;14.79;100.00;96432.34;5115376;28;20298;-68
2023/08/31 06:37:39;;;;;;;2.67;2.47;;;;;;;14.84;100.00;96437.94;5120826;28;20202;-68
2023/08/31 06:40:08;;;;;;;2.37;2.27;;;;;;;14.88;100.00;96439.25;5133472;28;20200;-68
2023/08/31 06:42:37;;;;;;;2.77;2.53;;;;;;;14.88;100.00;96439.25;5125206;28;20297;-69
2023/08/31 06:45:05;;;;;;;2.70;2.17;;;;;;;14.92;100.00;96440.56;5116203;28;20225;-67
2023/08/31 06:47:31;;;;;;;2.80;2.60;;;;;;;14.94;100.00;96445.75;5116357;28;20197;-68
2023/08/31 06:49:58;;;;;;;2.73;2.63;;;;;;;14.91;100.00;96446.88;5116475;28;20208;-69
2023/08/31 06:52:26;;;;;;;3.93;2.70;;;;;;;14.96;100.00;96449.03;5115393;28;20224;-67
2023/08/31 06:54:55;;;;;;;5.77;2.50;;;;;;;15.02;100.00;96455.53;5115864;28;20201;-68
2023/08/31 06:57:21;;;;;;;3.00;2.73;;;;;;;15.03;100.00;96457.16;5098143;28;20201;-68
2023/08/31 06:59:48;;;;;;;2.60;2.40;;;;;;;15.08;100.00;96460.13;5115949;28;20216;-68
2023/08/31 07:02:15;;;;;;;3.00;2.57;;;;;;;15.19;100.00;96459.75;5116225;28;20532;-69
2023/08/31 07:04:41;;;;;;;3.65;2.55;;;;;;;15.30;100.00;96456.69;5118333;28;20296;-68
2023/08/31 07:07:09;;;;;;;2.63;2.43;;;;;;;15.36;100.00;96463.97;5114894;28;20259;-68
2023/08/31 07:09:37;;;;;;;3.13;2.33;;;;;;;15.37;100.00;96478.94;5114668;28;20648;-70
2023/08/31 07:12:04;;;;;;;3.30;2.45;;;;;;;15.48;100.00;96481.19;5114708;28;20205;-67
2023/08/31 07:14:31;;;;;;;2.90;2.70;;;;;;;15.40;100.00;96470.59;5114659;28;20613;-68
2023/08/31 07:16:57;;;;;;;2.80;2.60;;;;;;;15.49;100.00;96458.88;5114375;28;20223;-68
2023/08/31 07:19:24;;;;;;;2.90;2.70;;;;;;;15.44;100.00;96458.56;5114637;28;20218;-69
2023/08/31 07:21:50;;;;;;;3.20;2.70;;;;;;;15.48;100.00;96470.50;5114445;28;20205;-69
2023/08/31 07:24:17;;;;;;;3.00;2.70;;;;;;;15.67;100.00;96469.25;5114990;28;20197;-67
2023/08/31 07:26:45;;;;;;;3.88;2.70;;;;;;;15.79;100.00;96471.34;5114177;28;20205;-69
2023/08/31 07:29:11;;;;;;;2.70;2.50;;;;;;;16.01;100.00;96476.81;5114520;28;20257;-68
2023/08/31 07:31:38;;;;;;;3.08;2.78;;;;;;;16.03;100.00;96494.28;5114469;28;20193;-67
2023/08/31 07:34:04;;;;;;;2.85;2.65;;;;;;;16.17;100.00;96492.66;5114298;28;20243;-67
2023/08/31 07:36:31;;;;;;;4.03;3.10;;;;;;;16.17;100.00;96498.00;5114131;28;20228;-69
2023/08/31 07:38:58;;;;;;;4.63;3.05;;;;;;;16.17;100.00;96490.81;5114697;28;20208;-69
2023/08/31 07:41:24;;;;;;;4.82;3.30;;;;;;;16.25;100.00;96497.91;5114543;28;20209;-67
2023/08/31 07:43:52;;;;;;;3.15;2.75;;;;;;;16.12;100.00;96506.53;5113896;28;20336;-68
2023/08/31 07:46:19;;;;;;;2.97;2.70;;;;;;;16.12;100.00;96511.06;5114211;28;20201;-68
2023/08/31 07:48:47;;;;;;;3.22;2.78;;;;;;;16.06;100.00;96517.94;5113815;28;20201;-68
2023/08/31 07:51:13;;;;;;;6.80;2.72;;;;;;;16.07;100.00;96510.75;5113416;28;20197;-67
2023/08/31 07:53:41;;;;;;;2.80;2.60;;;;;;;16.13;100.00;96523.38;5114322;28;20205;-68
2023/08/31 07:56:07;;;;;;;3.35;3.05;;;;;;;16.28;100.00;96518.91;5113188;28;20675;-68
2023/08/31 07:58:33;;;;;;;3.38;2.70;;;;;;;16.25;100.00;96519.25;5112989;28;20205;-68
2023/08/31 08:01:01;;;;;;;2.92;2.72;;;;;;;16.32;100.00;96515.69;5113863;28;20193;-67
2023/08/31 08:03:28;;;;;;;6.38;2.70;;;;;;;16.41;100.00;96527.09;5112760;28;20273;-67
2023/08/31 08:05:56;;;;;;;3.00;2.60;;;;;;;16.36;100.00;96526.84;5112804;27;20223;-68
2023/08/31 08:08:23;;;;;;;2.95;2.75;;;;;;;16.38;100.00;96525.63;5112761;28;20217;-67
2023/08/31 08:10:53;;;;;;;2.80;2.60;;;;;;;16.38;100.00;96524.81;5113935;28;20193;-69
2023/08/31 08:13:19;;;;;;;2.70;2.50;;;;;;;16.39;100.00;96532.66;5113375;28;20202;-66
2023/08/31 08:15:46;;;;;;;3.65;2.90;;;;;;;16.40;100.00;96536.94;5113175;28;20225;-67
2023/08/31 08:18:14;;;;;;;2.92;2.60;;;;;;;16.44;100.00;96537.41;5113446;28;20193;-67
2023/08/31 08:20:40;;;;;;;4.38;2.75;;;;;;;16.39;100.00;96539.81;5112964;28;20205;-67
2023/08/31 08:23:07;;;;;;;4.78;3.00;;;;;;;16.42;100.00;96539.44;5113107;28;20205;-68
2023/08/31 08:25:34;;;;;;;2.85;2.65;;;;;;;16.43;100.00;96541.94;5113537;28;20517;-67
2023/08/31 08:28:00;;;;;;;2.90;2.70;;;;;;;16.55;100.00;96544.16;5112363;28;20294;-67
2023/08/31 08:30:27;;;;;;;2.88;2.65;;;;;;;16.59;100.00;96553.50;5112883;28;20193;-68
2023/08/31 08:32:53;;;;;;;2.75;2.30;;;;;;;16.65;100.00;96558.91;5113010;28;20461;-67
2023/08/31 08:35:21;;;;;;;2.80;2.60;;;;;;;16.72;100.00;96551.84;5112860;28;20220;-69
2023/08/31 08:37:47;;;;;;;3.03;2.80;;;;;;;16.70;100.00;96566.38;5112575;28;20201;-69
2023/08/31 08:40:14;;;;;;;2.72;2.53;;;;;;;16.64;100.00;96557.28;5112494;28;20205;-68
2023/08/31 08:42:43;;;;;;;2.70;2.50;;;;;;;16.66;100.00;96557.91;5112839;28;20208;-68
2023/08/31 08:45:15;;;;;;;3.17;2.70;;;;;;;16.70;100.00;96556.53;5112900;28;20209;-68
2023/08/31 08:47:41;;;;;;;2.72;2.53;;;;;;;16.86;100.00;96555.56;5112926;28;20201;-68
2023/08/31 08:50:08;;;;;;;3.33;2.90;;;;;;;16.92;100.00;96562.81;5113898;28;20201;-67
2023/08/31 08:52:36;;;;;;;2.72;2.50;;;;;;;16.92;100.00;96558.31;5123660;28;21194;-67
2023/08/31 08:55:03;;;;;;;2.88;2.60;;;;;;;16.95;100.00;96564.28;5128370;28;20201;-66
2023/08/31 08:57:31;;;;;;;2.33;2.13;;;;;;;17.06;100.00;96564.66;5119593;28;20263;-67
2023/08/31 08:59:58;;;;;;;3.15;2.70;;;;;;;17.17;100.00;96572.22;5113334;28;20208;-67
2023/08/31 09:02:25;;;;;;;3.00;2.80;;;;;;;17.25;100.00;96568.63;5113167;28;20239;-68
2023/08/31 09:04:54;;;;;;;2.70;2.47;;;;;;;17.26;100.00;96578.28;5112529;28;20697;-67
2023/08/31 09:07:21;;;;;;;2.30;2.20;;;;;;;17.37;100.00;96577.78;5112594;28;20212;-67
2023/08/31 09:09:51;;;;;;;2.95;2.67;;;;;;;17.55;100.00;96570.22;5112328;28;20189;-69
2023/08/31 09:12:18;;;;;;;3.13;2.88;;;;;;;17.61;100.00;96577.50;5111941;28;20209;-67
2023/08/31 09:14:44;;;;;;;3.15;2.58;;;;;;;17.59;100.00;96570.69;5112088;28;20201;-67
2023/08/31 09:17:11;;;;;;;2.95;2.63;;;;;;;17.63;100.00;96561.28;5112060;28;20228;-68
2023/08/31 09:19:37;;;;;;;2.60;2.47;;;;;;;17.66;100.00;96567.09;5111640;28;20208;-68
2023/08/31 09:22:04;;;;;;;3.45;2.50;;;;;;;17.74;100.00;96577.66;5112149;28;20208;-67
2023/08/31 09:24:41;;;;;;;3.15;2.20;;;;;;;17.87;100.00;96574.28;5112379;28;20197;-67
2023/08/31 09:27:10;;;;;;;2.47;2.33;;;;;;;17.80;100.00;96570.72;5112188;28;20224;-67
2023/08/31 09:29:38;;;;;;;1.98;1.85;;;;;;;17.82;100.00;96566.84;5113935;28;20201;-67
2023/08/31 09:32:05;;;;;;;2.47;2.28;;;;;;;18.08;100.00;96578.81;5113071;28;20203;-67
2023/08/31 09:34:34;;;;;;;2.60;2.40;;;;;;;18.09;100.00;96577.81;5111825;28;20193;-68
2023/08/31 09:37:05;;;;;;;2.33;2.20;;;;;;;18.07;100.00;96569.97;5111840;28;20224;-67
2023/08/31 09:39:36;;;;;;;2.97;2.78;;;;;;;17.96;99.39;96578.50;5112274;28;20204;-67
2023/08/31 09:42:04;;;;;;;4.00;2.55;;;;;;;17.82;100.00;96576.69;5112194;28;20197;-66
2023/08/31 09:44:31;;;;;;;2.53;2.33;;;;;;;17.58;100.00;96569.84;5111975;28;20553;-67
2023/08/31 09:46:58;;;;;;;2.78;2.42;;;;;;;17.40;100.00;96572.06;5111967;28;20201;-68
2023/08/31 09:49:26;;;;;;;2.83;2.38;;;;;;;17.30;100.00;96575.03;5111523;28;20203;-67
2023/08/31 09:51:53;;;;;;;3.70;2.47;;;;;;;17.42;100.00;96576.25;5111685;28;20201;-67
2023/08/31 09:54:21;;;;;;;2.60;2.40;;;;;;;17.43;100.00;96577.03;5111803;28;20529;-68
2023/08/31 09:56:48;;;;;;;2.90;2.60;;;;;;;17.41;100.00;96573.75;5111466;28;20591;-67
2023/08/31 09:59:16;;;;;;;2.47;2.17;;;;;;;17.41;100.00;96571.06;5111362;28;20293;-68
2023/08/31 10:01:46;;;;;;;2.17;2.08;;;;;;;17.46;100.00;96574.03;5111621;28;20215;-67
2023/08/31 10:04:13;;;;;;;2.30;2.10;;;;;;;17.45;100.00;96572.34;5111897;28;20629;-68
2023/08/31 10:06:40;;;;;;;2.63;2.40;;;;;;;17.51;100.00;96573.44;5110905;28;20606;-67
2023/08/31 10:09:09;;;;;;;2.53;2.22;;;;;;;17.50;100.00;96572.59;5115486;28;20201;-66
2023/08/31 10:11:36;;;;;;;2.80;2.60;;;;;;;17.51;100.00;96571.59;5115738;28;20235;-68
2023/08/31 10:14:05;;;;;;;2.65;2.40;;;;;;;17.47;100.00;96562.28;5116198;28;20204;-69
2023/08/31 10:16:31;;;;;;;2.90;2.30;;;;;;;17.47;100.00;96572.97;5115644;28;20218;-68
2023/08/31 10:18:59;;;;;;;2.72;2.50;;;;;;;17.41;100.00;96565.72;5115665;28;20213;-68
2023/08/31 10:21:26;;;;;;;3.33;2.65;;;;;;;17.45;100.00;96568.84;5114781;28;20205;-66
2023/08/31 10:23:53;;;;;;;2.92;2.42;;;;;;;17.45;100.00;96575.03;5116122;28;20201;-67
2023/08/31 10:26:24;;;;;;;2.30;2.10;;;;;;;17.48;100.00;96579.16;5115275;28;20633;-69
2023/08/31 10:28:51;;;;;;;4.15;3.05;;;;;;;17.46;100.00;96565.16;5115537;28;20395;-66
2023/08/31 10:31:18;;;;;;;3.40;3.10;;;;;;;17.41;100.00;96563.88;5115964;28;20209;-68
2023/08/31 10:33:47;;;;;;;3.28;2.70;;;;;;;17.52;100.00;96570.59;5115542;28;20244;-66
2023/08/31 10:36:15;;;;;;;4.07;3.05;;;;;;;17.56;100.00;96563.88;5115676;28;20201;-68
2023/08/31 10:38:43;;;;;;;2.55;2.30;;;;;;;17.58;100.00;96561.00;5115405;28;20208;-67
2023/08/31 10:41:22;;;;;;;4.70;3.00;;;;;;;17.44;96.12;96573.38;5115036;28;20208;-68
2023/08/31 10:43:50;;;;;;;3.65;2.80;;;;;;;17.56;100.00;96571.03;5115195;28;20617;-70
2023/08/31 10:46:32;;;;;;;2.75;2.28;;;;;;;17.61;100.00;96564.13;5114821;28;20280;-67
2023/08/31 10:48:59;;;;;;;3.92;2.70;;;;;;;17.60;100.00;96557.16;5110860;28;20550;-67
2023/08/31 10:51:29;;;;;;;4.32;3.00;;;;;;;17.59;99.96;96560.00;5114685;28;20208;-68
2023/08/31 10:54:06;;;;;;;3.70;2.80;;;;;;;17.76;100.00;96559.56;5114659;28;20258;-68
2023/08/31 10:56:33;;;;;;;4.38;3.60;;;;;;;17.78;100.00;96557.53;5115492;28;20220;-68
2023/08/31 10:59:00;;;;;;;4.22;3.72;;;;;;;17.85;100.00;96562.97;5115254;28;20244;-68
2023/08/31 11:01:56;;;;;;;3.50;2.80;;;;;;;17.89;97.47;96557.03;5114443;28;20233;-67
2023/08/31 11:04:24;;;;;;;3.65;3.30;;;;;;;17.98;98.45;96554.25;5123107;28;20193;-68
2023/08/31 11:07:13;;;;;;;3.60;3.30;;;;;;;18.06;100.00;96552.28;5129982;28;20173;-67
2023/08/31 11:09:39;;;;;;;3.90;2.85;;;;;;;18.13;100.00;96546.97;5129415;28;20185;-68
2023/08/31 11:12:06;;;;;;;4.25;2.50;;;;;;;18.13;96.54;96550.50;5115368;28;20224;-67
2023/08/31 11:14:33;;;;;;;3.00;2.65;;;;;;;18.15;99.31;96547.59;5113990;28;20629;-67
2023/08/31 11:17:00;;;;;;;3.28;2.85;;;;;;;18.17;99.92;96550.94;5114929;28;20243;-68
2023/08/31 11:19:27;;;;;;;4.97;2.67;;;;;;;18.26;100.00;96555.94;5113803;28;20205;-68
2023/08/31 11:21:55;;;;;;;5.32;2.60;;;;;;;18.34;100.00;96550.47;5114510;28;20216;-68
2023/08/31 11:24:22;;;;;;;2.85;2.55;;;;;;;18.38;100.00;96551.75;5113970;28;20633;-67
2023/08/31 11:26:49;;;;;;;2.70;2.28;;;;;;;18.54;100.00;96545.28;5114324;28;20250;-68